Time;durP1;ratioP1;P1;durP2;ratioP2;P2;SDS_P1;SDS_P2;PMS_P1;PMS_P2;Temp;Humidity;BMP_temperature;BMP_pressure;BME280_temperature;BME280_humidity;BME280_pressure;Samples;Min_cycle;Max_cycle;Signal;HPM_P1;HPM_P2
2022/04/20 00:00:41;;;;;;;82.75;28.95;;;;;;;7.52;74.35;100652.84;5054014;28;20414;-80
2022/04/20 00:03:07;;;;;;;75.07;31.85;;;;;;;7.50;74.90;100653.91;5052310;28;20450;-78
2022/04/20 00:05:33;;;;;;;82.45;30.02;;;;;;;7.49;74.41;100650.38;5053800;28;20078;-80
2022/04/20 00:08:00;;;;;;;77.55;31.92;;;;;;;7.20;75.06;100640.81;5053699;28;20033;-80
2022/04/20 00:10:25;;;;;;;72.90;31.65;;;;;;;7.26;75.06;100648.41;5053844;28;20028;-81
2022/04/20 00:12:51;;;;;;;83.25;36.22;;;;;;;7.25;75.35;100638.66;5053400;28;20048;-81
2022/04/20 00:15:16;;;;;;;94.55;38.25;;;;;;;7.13;75.14;100644.84;5052119;28;20024;-80
2022/04/20 00:17:42;;;;;;;93.13;41.63;;;;;;;7.11;75.57;100633.41;5053362;28;20178;-80
2022/04/20 00:20:08;;;;;;;95.32;40.88;;;;;;;7.19;75.27;100651.59;5053878;28;20107;-80
2022/04/20 00:22:33;;;;;;;98.70;40.33;;;;;;;7.09;75.79;100656.72;5053513;28;20101;-81
2022/04/20 00:24:59;;;;;;;90.35;41.60;;;;;;;7.15;76.50;100661.66;5053509;28;20425;-80
2022/04/20 00:27:24;;;;;;;107.10;45.22;;;;;;;7.23;76.25;100659.31;5053328;28;20021;-81
2022/04/20 00:29:50;;;;;;;129.02;44.15;;;;;;;7.25;76.22;100657.41;5054147;28;20025;-79
2022/04/20 00:32:15;;;;;;;94.53;45.75;;;;;;;7.32;75.69;100664.06;5053390;28;20144;-79
2022/04/20 00:34:40;;;;;;;112.40;47.90;;;;;;;7.32;74.94;100666.72;5052980;28;20025;-79
2022/04/20 00:37:06;;;;;;;119.35;49.28;;;;;;;7.27;75.13;100660.84;5065138;28;20051;-79
2022/04/20 00:39:33;;;;;;;127.38;49.90;;;;;;;7.26;75.24;100664.47;5061568;28;20033;-81
2022/04/20 00:41:58;;;;;;;123.13;50.47;;;;;;;7.31;75.41;100662.34;5053229;28;20029;-80
2022/04/20 00:44:25;;;;;;;106.13;43.75;;;;;;;7.44;74.96;100678.41;5053648;28;20356;-79
2022/04/20 00:46:52;;;;;;;108.03;43.05;;;;;;;7.33;74.90;100664.91;5052718;28;20028;-79
2022/04/20 00:49:17;;;;;;;95.43;44.15;;;;;;;7.19;74.96;100663.16;5052750;28;20141;-78
2022/04/20 00:51:56;;;;;;;100.32;42.00;;;;;;;7.04;74.90;100658.81;5052495;28;20069;-78
2022/04/20 00:54:21;;;;;;;82.97;38.83;;;;;;;7.09;75.06;100667.44;5052921;28;20515;-78
2022/04/20 00:56:47;;;;;;;83.28;37.42;;;;;;;7.05;75.21;100668.56;5052736;28;20036;-79
2022/04/20 00:59:15;;;;;;;75.53;35.13;;;;;;;7.03;75.40;100670.50;5052960;28;20475;-79
2022/04/20 01:01:41;;;;;;;65.78;33.13;;;;;;;7.03;75.45;100668.66;5052273;28;20498;-79
2022/04/20 01:04:06;;;;;;;64.80;33.88;;;;;;;7.03;75.27;100665.16;5052419;28;20024;-79
2022/04/20 01:06:32;;;;;;;69.47;31.88;;;;;;;7.08;75.18;100661.22;5052557;28;20122;-81
2022/04/20 01:08:57;;;;;;;66.10;32.72;;;;;;;7.02;75.04;100658.94;5053893;28;20032;-79
2022/04/20 01:11:23;;;;;;;76.55;36.17;;;;;;;6.91;75.02;100668.63;5068836;28;20025;-79
2022/04/20 01:13:48;;;;;;;76.32;36.00;;;;;;;6.96;75.61;100662.03;5067681;28;20112;-79
2022/04/20 01:16:14;;;;;;;68.07;33.35;;;;;;;7.03;75.21;100668.66;5066665;28;20029;-80
2022/04/20 01:18:43;;;;;;;80.20;36.55;;;;;;;7.01;75.33;100669.72;5051859;28;20044;-78
2022/04/20 01:21:10;;;;;;;77.57;36.58;;;;;;;7.00;75.30;100663.50;5051980;28;20468;-79
2022/04/20 01:23:36;;;;;;;99.70;36.75;;;;;;;7.06;75.42;100663.09;5051962;28;20092;-79
2022/04/20 01:26:06;;;;;;;73.80;35.53;;;;;;;7.06;75.50;100667.63;5052053;28;20021;-79
2022/04/20 01:28:32;;;;;;;92.93;42.47;;;;;;;7.01;75.17;100659.91;5051762;28;20025;-79
2022/04/20 01:30:57;;;;;;;100.95;44.78;;;;;;;7.05;75.68;100660.56;5051783;28;20025;-80
2022/04/20 01:33:23;;;;;;;112.03;47.00;;;;;;;7.06;75.75;100647.06;5051501;28;20041;-79
2022/04/20 01:35:48;;;;;;;128.27;48.85;;;;;;;7.19;75.96;100667.63;5051474;28;20132;-79
2022/04/20 01:38:14;;;;;;;98.47;47.22;;;;;;;7.25;75.42;100668.09;5051782;28;20414;-80
2022/04/20 01:40:39;;;;;;;116.75;48.25;;;;;;;7.27;75.42;100663.53;5051653;28;20482;-79
2022/04/20 01:43:05;;;;;;;88.85;43.53;;;;;;;7.24;75.54;100654.84;5051573;28;20384;-80
2022/04/20 01:45:31;;;;;;;77.57;41.80;;;;;;;7.16;74.97;100663.34;5051575;28;20505;-80
2022/04/20 01:47:56;;;;;;;84.07;39.65;;;;;;;7.04;75.54;100673.06;5051423;28;20471;-80
2022/04/20 01:50:22;;;;;;;65.95;34.00;;;;;;;6.95;75.14;100654.09;5051476;28;20104;-80
2022/04/20 01:52:49;;;;;;;93.35;34.47;;;;;;;6.94;75.06;100657.75;5051597;28;20165;-79
2022/04/20 01:55:15;;;;;;;107.35;38.97;;;;;;;6.77;74.84;100650.81;5051298;28;20463;-80
2022/04/20 01:57:41;;;;;;;68.93;33.55;;;;;;;6.52;75.93;100656.03;5051534;28;20025;-80
2022/04/20 02:00:07;;;;;;;71.88;36.90;;;;;;;6.29;76.86;100654.84;5051332;28;20062;-80
2022/04/20 02:02:35;;;;;;;90.03;36.53;;;;;;;6.15;77.79;100657.50;5051049;28;20035;-79
2022/04/20 02:05:06;;;;;;;72.95;38.08;;;;;;;6.10;78.65;100656.94;5051461;28;20023;-79
2022/04/20 02:07:32;;;;;;;82.78;36.47;;;;;;;6.20;78.85;100654.56;5051100;28;20021;-79
2022/04/20 02:09:58;;;;;;;101.45;35.42;;;;;;;6.16;78.67;100664.56;5051365;28;20029;-79
2022/04/20 02:12:24;;;;;;;76.38;35.63;;;;;;;6.26;78.54;100665.72;5051070;28;20100;-79
2022/04/20 02:14:49;;;;;;;68.78;32.05;;;;;;;6.40;78.85;100668.34;5053661;28;20124;-79
2022/04/20 02:17:14;;;;;;;108.13;33.50;;;;;;;6.38;78.76;100662.25;5055185;28;20531;-79
2022/04/20 02:19:40;;;;;;;78.95;32.88;;;;;;;6.49;77.99;100662.44;5055457;28;20033;-79
2022/04/20 02:22:05;;;;;;;74.65;31.95;;;;;;;6.36;78.11;100653.47;5055541;28;20029;-78
2022/04/20 02:24:31;;;;;;;75.15;33.03;;;;;;;6.42;78.20;100660.25;5055364;28;20029;-79
2022/04/20 02:26:56;;;;;;;58.30;30.30;;;;;;;6.40;77.89;100659.47;5055737;28;20032;-78
2022/04/20 02:29:22;;;;;;;74.30;31.98;;;;;;;6.34;77.62;100658.06;5074335;28;20033;-80
2022/04/20 02:31:47;;;;;;;54.38;28.45;;;;;;;6.40;78.19;100657.69;5058147;28;20036;-79
2022/04/20 02:34:13;;;;;;;77.97;31.52;;;;;;;6.38;77.58;100662.25;5054976;28;20084;-78
2022/04/20 02:36:39;;;;;;;71.03;28.80;;;;;;;6.38;77.77;100651.59;5054966;28;20032;-78
2022/04/20 02:39:05;;;;;;;64.45;28.35;;;;;;;6.53;77.78;100668.44;5054808;28;20478;-81
2022/04/20 02:41:41;;;;;;;67.80;29.42;;;;;;;6.56;77.29;100669.09;5055300;28;20024;-80
2022/04/20 02:44:07;;;;;;;81.40;29.30;;;;;;;6.44;76.95;100648.53;5054969;28;20041;-80
2022/04/20 02:46:34;;;;;;;61.40;28.52;;;;;;;6.54;76.88;100649.63;5054907;28;20033;-78
2022/04/20 02:49:00;;;;;;;69.70;27.52;;;;;;;6.49;76.89;100651.75;5054636;28;20061;-78
2022/04/20 02:51:25;;;;;;;66.07;28.80;;;;;;;6.37;77.18;100649.84;5054870;28;20028;-79
2022/04/20 02:53:51;;;;;;;56.72;29.15;;;;;;;6.35;77.37;100653.59;5055142;28;20048;-80
2022/04/20 02:56:16;;;;;;;74.72;28.48;;;;;;;6.30;77.32;100640.50;5054705;28;20156;-80
2022/04/20 02:58:42;;;;;;;63.53;30.42;;;;;;;6.49;77.42;100656.22;5054805;28;20091;-81
2022/04/20 03:01:07;;;;;;;67.15;28.80;;;;;;;6.52;76.81;100662.22;5054728;28;20029;-80
2022/04/20 03:03:33;;;;;;;53.08;27.23;;;;;;;6.55;76.90;100667.38;5054621;28;20049;-80
2022/04/20 03:05:59;;;;;;;61.95;28.02;;;;;;;6.57;76.76;100665.47;5053160;28;20494;-80
2022/04/20 03:08:24;;;;;;;59.38;26.67;;;;;;;6.53;76.41;100658.63;5054490;28;20029;-80
2022/04/20 03:10:51;;;;;;;102.55;27.98;;;;;;;6.40;76.12;100656.81;5054408;28;20036;-81
2022/04/20 03:13:17;;;;;;;69.03;26.60;;;;;;;6.24;76.24;100670.28;5053250;28;20047;-80
2022/04/20 03:15:43;;;;;;;50.50;26.77;;;;;;;6.32;76.70;100669.81;5054351;28;20348;-80
2022/04/20 03:18:09;;;;;;;58.03;26.58;;;;;;;6.30;76.87;100672.56;5054344;28;20035;-79
2022/04/20 03:20:34;;;;;;;60.70;27.42;;;;;;;5.99;77.21;100662.09;5054831;28;20032;-80
2022/04/20 03:23:00;;;;;;;62.60;25.85;;;;;;;6.20;77.60;100675.91;5054339;28;20029;-79
2022/04/20 03:25:25;;;;;;;41.90;25.13;;;;;;;6.25;77.45;100674.66;5054170;28;20021;-81
2022/04/20 03:27:50;;;;;;;52.90;26.52;;;;;;;6.32;76.93;100676.00;5054056;28;20029;-80
2022/04/20 03:30:16;;;;;;;53.60;28.70;;;;;;;6.35;76.78;100681.16;5054762;28;20456;-80
2022/04/20 03:32:42;;;;;;;101.05;31.85;;;;;;;6.28;76.74;100681.63;5054697;28;20053;-80
2022/04/20 03:35:08;;;;;;;77.03;31.00;;;;;;;6.07;77.11;100683.84;5054845;28;20037;-78
2022/04/20 03:37:33;;;;;;;63.90;27.90;;;;;;;5.98;77.40;100681.72;5053357;28;20020;-80
2022/04/20 03:39:59;;;;;;;64.35;29.55;;;;;;;5.84;77.97;100676.34;5054015;28;20032;-80
2022/04/20 03:42:26;;;;;;;83.10;29.48;;;;;;;6.08;78.06;100690.03;5054722;28;20021;-81
2022/04/20 03:44:52;;;;;;;60.47;28.88;;;;;;;6.04;77.89;100700.03;5054031;28;20017;-78
2022/04/20 03:47:17;;;;;;;65.03;28.02;;;;;;;6.06;77.24;100682.09;5052260;28;20409;-78
2022/04/20 03:49:43;;;;;;;41.72;24.42;;;;;;;6.17;77.16;100694.81;5052758;28;20025;-79
2022/04/20 03:52:09;;;;;;;44.42;25.10;;;;;;;6.11;76.59;100696.03;5054110;28;20036;-79
2022/04/20 03:54:35;;;;;;;44.92;25.05;;;;;;;6.07;76.00;100697.19;5053568;28;20116;-79
2022/04/20 03:57:04;;;;;;;49.05;23.90;;;;;;;6.03;75.95;100700.97;5053361;28;20021;-80
2022/04/20 03:59:34;;;;;;;54.47;24.83;;;;;;;6.17;76.00;100706.34;5053300;28;20037;-79
2022/04/20 04:01:59;;;;;;;52.15;26.98;;;;;;;6.18;75.88;100693.81;5053406;28;20031;-80
2022/04/20 04:04:25;;;;;;;58.92;30.65;;;;;;;6.13;76.16;100702.13;5053413;28;20021;-79
2022/04/20 04:06:51;;;;;;;66.53;31.85;;;;;;;6.08;75.79;100703.38;5053529;28;20032;-79
2022/04/20 04:09:16;;;;;;;70.95;30.35;;;;;;;6.30;76.38;100709.13;5053353;28;20059;-79
2022/04/20 04:11:42;;;;;;;83.50;31.40;;;;;;;6.29;76.44;100712.72;5052981;28;20518;-80
2022/04/20 04:14:07;;;;;;;92.20;34.72;;;;;;;6.28;76.57;100701.19;5052842;28;20120;-78
2022/04/20 04:16:36;;;;;;;69.07;28.77;;;;;;;6.27;76.64;100694.13;5053866;28;20028;-80
2022/04/20 04:19:03;;;;;;;69.28;28.52;;;;;;;6.41;76.52;100701.28;5053720;28;20025;-78
2022/04/20 04:21:29;;;;;;;64.88;30.77;;;;;;;6.48;76.25;100708.78;5074706;28;20031;-80
2022/04/20 04:23:54;;;;;;;62.55;29.50;;;;;;;6.56;75.86;100706.50;5052940;28;20099;-79
2022/04/20 04:26:19;;;;;;;76.03;30.95;;;;;;;6.42;75.67;100714.53;5052903;28;20021;-78
2022/04/20 04:28:45;;;;;;;65.95;30.42;;;;;;;6.48;75.89;100708.78;5052721;28;20474;-78
2022/04/20 04:31:10;;;;;;;98.20;34.03;;;;;;;6.50;75.98;100698.88;5052473;28;20036;-78
2022/04/20 04:33:36;;;;;;;76.88;32.38;;;;;;;6.57;75.75;100718.06;5052472;28;20049;-79
2022/04/20 04:36:02;;;;;;;107.03;33.72;;;;;;;6.48;75.76;100703.44;5052199;28;20109;-78
2022/04/20 04:38:27;;;;;;;157.20;36.88;;;;;;;6.61;75.67;100729.38;5052326;28;20028;-80
2022/04/20 04:40:53;;;;;;;109.00;34.10;;;;;;;6.60;75.34;100727.69;5052920;28;20025;-78
2022/04/20 04:43:19;;;;;;;77.45;31.38;;;;;;;6.68;75.53;100730.72;5052580;28;20049;-79
2022/04/20 04:48:38;;;;;;;98.75;32.28;;;;;;;6.71;74.59;100735.88;5052342;28;20032;-79
2022/04/20 04:51:05;;;;;;;66.68;29.50;;;;;;;6.78;74.67;100742.56;5051078;28;20029;-79
2022/04/20 04:53:31;;;;;;;125.53;31.83;;;;;;;6.64;73.75;100735.41;5052327;28;20464;-79
2022/04/20 04:55:57;;;;;;;124.40;34.80;;;;;;;6.66;73.98;100736.19;5052133;28;20017;-79
2022/04/20 04:58:22;;;;;;;110.13;33.22;;;;;;;6.61;74.24;100745.41;5052040;28;20082;-79
2022/04/20 05:00:48;;;;;;;162.70;33.85;;;;;;;6.65;74.26;100749.63;5051789;28;20025;-79
2022/04/20 05:03:17;;;;;;;133.05;33.90;;;;;;;6.51;74.58;100745.16;5050899;28;20646;-79
2022/04/20 05:05:43;;;;;;;66.50;31.63;;;;;;;6.44;75.04;100743.81;5054087;28;20025;-79
2022/04/20 05:08:09;;;;;;;73.82;32.75;;;;;;;6.46;75.79;100750.78;5051295;28;20344;-78
2022/04/20 05:10:35;;;;;;;73.85;32.47;;;;;;;6.61;75.85;100748.09;5052442;28;20082;-79
2022/04/20 05:13:01;;;;;;;135.45;37.67;;;;;;;6.57;75.99;100745.63;5050912;28;20490;-79
2022/04/20 05:15:27;;;;;;;83.90;34.97;;;;;;;6.72;75.81;100749.16;5051853;28;20059;-79
2022/04/20 05:17:53;;;;;;;88.78;34.00;;;;;;;6.80;76.00;100757.53;5052096;28;20020;-79
2022/04/20 05:20:21;;;;;;;73.25;33.47;;;;;;;6.76;74.95;100756.00;5052533;28;20447;-79
2022/04/20 05:22:48;;;;;;;83.72;34.55;;;;;;;6.60;75.26;100762.44;5052168;28;20024;-80
2022/04/20 05:25:13;;;;;;;75.90;34.97;;;;;;;6.57;75.84;100761.66;5052137;28;20017;-80
2022/04/20 05:27:38;;;;;;;78.47;34.70;;;;;;;6.38;75.99;100758.44;5052356;28;20079;-79
2022/04/20 05:30:06;;;;;;;89.13;35.85;;;;;;;6.46;76.64;100765.94;5052363;28;20033;-80
2022/04/20 05:32:31;;;;;;;72.95;37.85;;;;;;;6.49;76.97;100768.44;5050620;28;20414;-79
2022/04/20 05:34:57;;;;;;;77.82;38.53;;;;;;;6.54;77.36;100764.50;5050681;28;20025;-78
2022/04/20 05:42:51;;;;;;;79.32;37.95;;;;;;;7.04;77.19;100760.44;5052832;28;20031;-79
2022/04/20 05:45:16;;;;;;;84.53;39.08;;;;;;;7.19;76.72;100767.47;5052246;28;20013;-79
2022/04/20 05:47:42;;;;;;;72.35;38.05;;;;;;;7.44;76.20;100764.91;5051697;28;20477;-80
2022/04/20 05:50:08;;;;;;;68.65;37.72;;;;;;;7.52;75.57;100765.25;5051277;28;20063;-80
2022/04/20 05:52:33;;;;;;;77.40;36.80;;;;;;;7.73;74.55;100762.09;5052150;28;20024;-79
2022/04/20 05:54:59;;;;;;;72.95;36.95;;;;;;;7.85;74.43;100753.25;5051887;28;20127;-80
2022/04/20 05:57:24;;;;;;;137.35;38.60;;;;;;;8.11;73.88;100761.19;5052358;28;20479;-80
2022/04/20 05:59:50;;;;;;;61.63;32.50;;;;;;;8.25;73.13;100762.94;5052059;28;20383;-80
2022/04/20 06:02:15;;;;;;;95.88;35.88;;;;;;;8.31;72.97;100762.53;5051600;28;20157;-80
2022/04/20 06:04:41;;;;;;;79.65;35.38;;;;;;;8.40;72.38;100761.91;5051605;28;20510;-79
2022/04/20 06:07:06;;;;;;;79.35;34.50;;;;;;;8.53;72.27;100752.00;5051673;28;20032;-80
2022/04/20 06:09:32;;;;;;;74.65;36.03;;;;;;;8.78;71.57;100756.47;5051622;28;20017;-80
2022/04/20 06:11:58;;;;;;;63.67;35.67;;;;;;;8.86;71.18;100761.28;5053302;28;20056;-80
2022/04/20 06:14:24;;;;;;;90.75;38.28;;;;;;;8.95;70.66;100752.59;5071639;28;20024;-80
2022/04/20 06:16:50;;;;;;;75.85;36.17;;;;;;;9.05;70.57;100743.75;5051478;28;20454;-80
2022/04/20 06:19:15;;;;;;;70.00;34.33;;;;;;;9.23;69.91;100745.06;5051520;28;20063;-80
2022/04/20 06:21:41;;;;;;;80.78;35.90;;;;;;;9.36;69.03;100745.00;5051653;28;20032;-79
2022/04/20 06:24:07;;;;;;;79.78;34.65;;;;;;;9.44;68.59;100745.31;5051368;28;20025;-80
2022/04/20 06:26:32;;;;;;;101.88;36.63;;;;;;;9.54;68.16;100743.63;5051876;28;20028;-81
2022/04/20 06:28:58;;;;;;;82.70;37.38;;;;;;;9.60;67.64;100735.13;5051693;28;20200;-81
2022/04/20 06:31:23;;;;;;;68.43;30.73;;;;;;;9.71;67.38;100747.75;5051268;28;20407;-79
2022/04/20 06:33:48;;;;;;;66.72;34.45;;;;;;;9.77;66.71;100742.78;5051258;28;20113;-79
2022/04/20 06:36:14;;;;;;;66.30;36.28;;;;;;;9.79;66.20;100730.06;5051887;28;20031;-79
2022/04/20 06:38:39;;;;;;;72.95;33.17;;;;;;;9.77;65.75;100737.41;5051205;28;20112;-80
2022/04/20 06:41:05;;;;;;;57.80;31.58;;;;;;;9.73;65.58;100740.41;5051100;28;20021;-83
2022/04/20 06:43:32;;;;;;;65.53;34.40;;;;;;;9.87;65.77;100742.94;5051353;28;20029;-83
2022/04/20 06:45:57;;;;;;;57.15;31.58;;;;;;;9.94;66.03;100721.81;5051450;28;20092;-83
2022/04/20 06:48:23;;;;;;;73.45;32.45;;;;;;;10.13;65.18;100732.84;5051603;28;20097;-82
2022/04/20 06:50:50;;;;;;;36.58;21.90;;;;;;;10.11;63.96;100737.50;5050991;28;20028;-84
2022/04/20 06:58:44;;;;;;;204.07;33.72;;;;;;;10.42;63.09;100733.28;5051279;28;20036;-83
2022/04/20 07:01:09;;;;;;;54.13;25.50;;;;;;;10.55;62.83;100729.50;5054297;28;20032;-82
2022/04/20 07:03:38;;;;;;;66.30;25.77;;;;;;;10.70;61.56;100722.06;5054973;28;20021;-83
2022/04/20 07:06:05;;;;;;;108.10;41.33;;;;;;;10.73;61.37;100719.94;5054786;28;20049;-84
2022/04/20 07:08:32;;;;;;;43.58;22.55;;;;;;;10.79;61.43;100721.31;5054659;28;20033;-82
2022/04/20 07:10:58;;;;;;;38.97;24.50;;;;;;;10.86;60.71;100712.59;5054880;28;20027;-83
2022/04/20 07:13:23;;;;;;;39.50;23.27;;;;;;;10.97;60.41;100714.44;5060019;28;20084;-84
2022/04/20 07:15:49;;;;;;;34.83;21.80;;;;;;;11.02;60.12;100722.97;5058362;28;20028;-83
2022/04/20 07:18:15;;;;;;;36.30;22.25;;;;;;;11.08;60.12;100718.91;5061501;28;20033;-83
2022/04/20 07:20:41;;;;;;;64.43;24.75;;;;;;;11.18;60.05;100712.66;5058588;28;20487;-84
2022/04/20 07:23:06;;;;;;;78.55;34.88;;;;;;;10.98;60.46;100720.69;5058242;28;20025;-82
2022/04/20 07:25:32;;;;;;;70.10;38.67;;;;;;;11.01;61.33;100709.66;5056272;28;20021;-84
2022/04/20 07:27:58;;;;;;;68.05;34.70;;;;;;;11.08;61.60;100710.84;5056145;28;20096;-84
2022/04/20 07:30:24;;;;;;;55.17;29.30;;;;;;;11.12;60.86;100715.88;5054897;28;20104;-83
2022/04/20 07:32:49;;;;;;;60.75;25.65;;;;;;;11.16;60.40;100711.91;5054251;28;20053;-84
2022/04/20 07:35:16;;;;;;;49.00;26.63;;;;;;;11.13;60.04;100708.66;5058425;28;20047;-83
2022/04/20 07:37:41;;;;;;;58.88;31.92;;;;;;;11.21;60.55;100715.09;5056861;28;20071;-83
2022/04/20 07:40:07;;;;;;;75.47;37.65;;;;;;;11.37;60.67;100712.00;5054492;28;20394;-83
2022/04/20 07:42:35;;;;;;;91.60;36.88;;;;;;;11.37;60.71;100690.47;5054167;28;20096;-83
2022/04/20 07:45:01;;;;;;;52.28;27.52;;;;;;;11.51;60.76;100703.59;5054098;28;20025;-84
2022/04/20 07:47:28;;;;;;;61.17;31.88;;;;;;;11.50;59.51;100679.50;5054506;28;20021;-83
2022/04/20 07:52:40;;;;;;;54.40;29.63;;;;;;;11.84;59.83;100686.44;5054390;28;20193;-82
2022/04/20 07:55:14;;;;;;;77.45;30.80;;;;;;;11.88;59.79;100677.97;5054333;28;20467;-84
2022/04/20 07:57:43;;;;;;;86.45;28.58;;;;;;;12.04;60.06;100677.50;5054217;28;20029;-84
2022/04/20 08:00:10;;;;;;;43.03;25.92;;;;;;;11.89;59.43;100671.63;5052794;28;20036;-83
2022/04/20 08:02:35;;;;;;;66.18;25.50;;;;;;;11.86;60.32;100682.63;5053888;28;20023;-84
2022/04/20 08:05:01;;;;;;;42.10;22.63;;;;;;;11.90;59.96;100673.31;5055121;28;20021;-82
2022/04/20 08:07:27;;;;;;;49.00;24.17;;;;;;;11.99;59.83;100669.81;5078643;28;20036;-82
2022/04/20 08:09:53;;;;;;;39.88;17.25;;;;;;;11.76;59.88;100665.56;5056819;28;20025;-82
2022/04/20 08:12:19;;;;;;;83.45;19.27;;;;;;;11.84;59.89;100662.19;5053361;28;20082;-83
2022/04/20 08:14:44;;;;;;;32.40;18.80;;;;;;;11.50;59.65;100669.56;5054390;28;20029;-82
2022/04/20 08:17:10;;;;;;;49.70;19.70;;;;;;;11.69;59.46;100672.41;5053928;28;20032;-82
2022/04/20 08:19:35;;;;;;;31.33;16.77;;;;;;;11.64;59.66;100665.72;5054175;28;20112;-84
2022/04/20 08:22:01;;;;;;;28.67;14.05;;;;;;;11.59;60.02;100662.56;5053736;28;20017;-82
2022/04/20 08:24:27;;;;;;;32.05;15.45;;;;;;;11.27;59.87;100641.91;5053791;28;20049;-83
2022/04/20 08:26:52;;;;;;;28.52;14.32;;;;;;;11.26;60.06;100660.88;5053967;28;20025;-82
2022/04/20 08:29:18;;;;;;;30.20;14.00;;;;;;;11.01;60.69;100661.22;5053367;28;20024;-83
2022/04/20 08:31:43;;;;;;;52.08;17.17;;;;;;;11.00;60.68;100665.75;5054165;28;20095;-82
2022/04/20 08:34:09;;;;;;;29.75;13.25;;;;;;;10.77;60.84;100654.16;5055302;28;20041;-81
2022/04/20 08:36:36;;;;;;;22.02;12.35;;;;;;;10.83;60.59;100668.94;5053536;28;20021;-81
2022/04/20 08:39:02;;;;;;;56.90;17.25;;;;;;;11.02;60.72;100658.38;5053238;28;20070;-82
2022/04/20 08:41:28;;;;;;;24.00;13.82;;;;;;;11.11;61.35;100657.63;5053368;28;20024;-83
2022/04/20 08:43:56;;;;;;;35.17;14.55;;;;;;;11.28;61.12;100664.31;5053259;28;20048;-83
2022/04/20 08:46:23;;;;;;;34.22;13.85;;;;;;;11.33;60.30;100638.69;5053123;28;20071;-82
2022/04/20 08:48:50;;;;;;;32.13;13.18;;;;;;;11.37;61.14;100660.84;5053786;28;20060;-84
2022/04/20 08:51:16;;;;;;;59.67;17.13;;;;;;;11.27;62.04;100662.59;5053094;28;20043;-83
2022/04/20 08:53:41;;;;;;;18.52;10.95;;;;;;;11.15;62.24;100652.84;5054142;28;20029;-84
2022/04/20 08:58:53;;;;;;;26.58;13.23;;;;;;;10.92;61.54;100641.28;5053752;28;20059;-84
2022/04/20 09:01:19;;;;;;;37.45;13.90;;;;;;;11.17;62.03;100651.72;5053140;28;20025;-79
2022/04/20 09:03:46;;;;;;;27.95;13.35;;;;;;;11.43;62.69;100660.31;5053432;28;20410;-84
2022/04/20 09:06:13;;;;;;;37.17;13.80;;;;;;;11.51;62.59;100652.44;5052751;28;20013;-83
2022/04/20 09:08:38;;;;;;;62.90;15.00;;;;;;;11.71;62.21;100646.22;5052367;28;20028;-83
2022/04/20 09:11:04;;;;;;;20.70;12.38;;;;;;;11.97;61.00;100647.53;5054776;28;20402;-82
2022/04/20 09:13:41;;;;;;;34.25;12.45;;;;;;;11.92;60.81;100649.78;5053434;28;20028;-82
2022/04/20 09:16:08;;;;;;;21.17;12.93;;;;;;;12.12;60.19;100647.19;5053809;28;20028;-83
2022/04/20 09:18:34;;;;;;;42.72;11.75;;;;;;;12.22;59.47;100650.78;5053182;28;20126;-84
2022/04/20 09:21:11;;;;;;;48.75;13.13;;;;;;;12.35;59.87;100651.44;5053076;28;20517;-82
2022/04/20 09:23:37;;;;;;;19.15;11.13;;;;;;;12.30;61.73;100653.66;5052341;28;20021;-83
2022/04/20 09:26:16;;;;;;;51.40;13.80;;;;;;;12.44;63.13;100653.31;5053583;28;20021;-83
2022/04/20 09:29:02;;;;;;;19.42;12.80;;;;;;;12.46;62.59;100656.72;5052461;28;20483;-83
2022/04/20 09:31:50;;;;;;;19.70;12.85;;;;;;;12.61;63.38;100657.19;5052683;28;20470;-79
2022/04/20 09:34:24;;;;;;;28.58;13.40;;;;;;;12.62;63.45;100662.47;5052957;28;20072;-84
2022/04/20 09:36:50;;;;;;;49.15;14.38;;;;;;;12.54;61.55;100656.88;5053410;28;20060;-82
2022/04/20 09:39:16;;;;;;;37.97;12.95;;;;;;;12.57;61.92;100652.06;5052459;28;20113;-81
2022/04/20 09:42:02;;;;;;;24.25;11.93;;;;;;;12.64;60.84;100660.47;5052271;28;20028;-83
2022/04/20 09:44:31;;;;;;;22.98;11.00;;;;;;;12.47;60.82;100653.03;5052787;28;20032;-83
2022/04/20 09:50:00;;;;;;;22.63;13.32;;;;;;;12.69;61.09;100666.28;5052441;28;20056;-82
2022/04/20 09:52:47;;;;;;;24.38;12.73;;;;;;;12.84;61.50;100659.50;5053152;28;20486;-83
2022/04/20 09:55:18;;;;;;;44.50;14.60;;;;;;;12.74;62.13;100653.25;5052775;28;20035;-82
2022/04/20 09:57:44;;;;;;;25.20;13.68;;;;;;;12.77;62.97;100652.97;5054873;28;20052;-82
2022/04/20 10:00:14;;;;;;;28.42;13.52;;;;;;;12.76;62.24;100645.00;5069911;28;20059;-83
2022/04/20 10:02:45;;;;;;;32.97;15.88;;;;;;;12.63;63.23;100644.44;5055638;28;20036;-84
2022/04/20 10:05:11;;;;;;;48.47;18.13;;;;;;;12.31;63.00;100645.44;5051111;28;20402;-83
2022/04/20 10:07:37;;;;;;;46.20;17.58;;;;;;;12.15;65.60;100646.91;5052609;28;20044;-83
2022/04/20 10:10:04;;;;;;;41.38;17.75;;;;;;;12.45;65.30;100652.28;5052810;28;20469;-83
2022/04/20 10:12:33;;;;;;;23.10;16.88;;;;;;;12.44;65.42;100643.38;5051937;28;20502;-83
2022/04/20 10:17:50;;;;;;;43.15;19.48;;;;;;;12.60;64.90;100640.13;5052215;28;20414;-83
2022/04/20 10:20:16;;;;;;;36.13;16.67;;;;;;;12.45;64.54;100636.97;5051159;28;20112;-83
2022/04/20 10:22:43;;;;;;;41.10;19.40;;;;;;;12.81;64.69;100635.50;5051656;28;20483;-83
2022/04/20 10:25:10;;;;;;;30.58;15.07;;;;;;;12.88;63.30;100633.97;5052167;28;20046;-81
2022/04/20 10:28:03;;;;;;;33.78;15.73;;;;;;;13.03;63.35;100627.16;5052208;28;20104;-83
2022/04/20 10:31:11;;;;;;;38.20;15.43;;;;;;;13.02;61.95;100630.88;5051588;28;20052;-82
2022/04/20 10:33:40;;;;;;;39.25;16.23;;;;;;;12.54;63.78;100608.31;5051363;28;20052;-83
2022/04/20 10:36:11;;;;;;;28.25;16.80;;;;;;;12.73;63.69;100616.47;5054961;28;20091;-81
2022/04/20 10:38:38;;;;;;;22.53;15.87;;;;;;;13.01;62.58;100623.75;5056661;28;20083;-81
2022/04/20 10:41:18;;;;;;;56.85;17.30;;;;;;;13.15;62.21;100627.09;5055538;28;20052;-84
2022/04/20 10:43:45;;;;;;;28.33;15.35;;;;;;;13.35;62.39;100617.97;5054680;28;20029;-81
2022/04/20 10:46:16;;;;;;;27.30;13.90;;;;;;;13.27;61.38;100607.03;5055480;28;20372;-82
2022/04/20 10:48:58;;;;;;;49.38;18.23;;;;;;;13.34;61.80;100608.16;5055805;28;20033;-82
2022/04/20 10:51:30;;;;;;;24.15;14.43;;;;;;;13.46;61.05;100618.69;5059726;28;20033;-81
2022/04/20 10:54:22;;;;;;;45.90;15.90;;;;;;;13.51;61.25;100610.16;5068513;28;20040;-84
2022/04/20 10:57:09;;;;;;;20.30;14.43;;;;;;;13.44;60.80;100604.47;5057472;28;20037;-82
2022/04/20 10:59:34;;;;;;;39.92;15.38;;;;;;;13.65;59.79;100607.00;5060752;28;20043;-82
2022/04/20 11:02:03;;;;;;;32.90;14.57;;;;;;;13.65;59.88;100612.41;5066854;28;20029;-83
2022/04/20 11:04:42;;;;;;;32.83;14.00;;;;;;;13.74;59.43;100611.53;5067528;28;20064;-82
2022/04/20 11:07:07;;;;;;;25.80;13.20;;;;;;;13.64;59.32;100606.13;5059509;28;20027;-82
2022/04/20 11:09:42;;;;;;;28.77;13.63;;;;;;;13.63;59.57;100604.44;5055941;28;20028;-82
2022/04/20 11:21:06;;;;;;;18.65;12.35;;;;;;;13.39;60.83;100595.91;5055986;28;20048;-85
2022/04/20 11:23:58;;;;;;;18.40;13.15;;;;;;;13.28;60.77;100592.53;5054381;28;20442;-87
2022/04/20 11:26:26;;;;;;;21.13;13.80;;;;;;;13.26;60.75;100589.97;5053833;28;20116;-79
2022/04/20 11:28:52;;;;;;;64.63;17.77;;;;;;;13.23;61.49;100578.59;5052969;28;20053;-79
2022/04/20 11:31:18;;;;;;;27.27;13.32;;;;;;;13.23;61.17;100578.59;5041069;28;20030;-77
2022/04/20 11:33:44;;;;;;;15.23;12.45;;;;;;;13.22;61.64;100582.28;5034293;28;20187;-78
2022/04/20 11:36:16;;;;;;;47.55;15.00;;;;;;;13.11;62.50;100585.16;5036507;28;20055;-78
2022/04/20 11:38:45;;;;;;;34.40;14.57;;;;;;;13.12;62.69;100571.47;5049611;28;20021;-81
2022/04/20 11:41:11;;;;;;;30.35;13.90;;;;;;;13.12;62.61;100570.66;5054280;28;20104;-79
2022/04/20 11:43:38;;;;;;;26.52;14.05;;;;;;;13.22;62.89;100575.03;5053916;28;20468;-79
2022/04/20 11:46:04;;;;;;;40.72;14.40;;;;;;;13.13;62.94;100569.63;5051171;28;20483;-79